Time;durP1;ratioP1;P1;durP2;ratioP2;P2;SDS_P1;SDS_P2;PMS_P1;PMS_P2;Temp;Humidity;BMP_temperature;BMP_pressure;BME280_temperature;BME280_humidity;BME280_pressure;Samples;Min_cycle;Max_cycle;Signal;HPM_P1;HPM_P2
2022/08/19 00:00:50;;;;;;;13.05;11.82;;;;;;;20.82;70.63;101241.81;5072979;28;20497;-81
2022/08/19 00:03:15;;;;;;;14.68;12.27;;;;;;;20.62;70.99;101236.94;5072743;28;20070;-82
2022/08/19 00:05:41;;;;;;;14.77;12.40;;;;;;;20.48;71.71;101239.94;5072562;28;20062;-81
2022/08/19 00:08:07;;;;;;;13.10;11.65;;;;;;;20.37;71.87;101234.78;5073069;28;20116;-81
2022/08/19 00:10:33;;;;;;;14.63;12.18;;;;;;;20.32;71.73;101241.19;5072777;28;20143;-81
2022/08/19 00:12:59;;;;;;;18.35;12.20;;;;;;;20.21;72.18;101219.94;5072617;28;20032;-81
2022/08/19 00:15:24;;;;;;;15.07;12.35;;;;;;;20.23;72.51;101227.06;5072803;28;20116;-81
2022/08/19 00:17:50;;;;;;;15.95;12.75;;;;;;;20.21;72.89;101236.97;5072825;28;20470;-81
2022/08/19 00:20:20;;;;;;;15.50;11.85;;;;;;;20.23;73.06;101234.22;5072812;28;20025;-81
2022/08/19 00:22:47;;;;;;;13.98;12.38;;;;;;;20.23;73.34;101236.91;5073019;28;20029;-81
2022/08/19 00:25:13;;;;;;;14.05;12.48;;;;;;;20.13;73.13;101221.97;5072684;28;20036;-81
2022/08/19 00:27:39;;;;;;;17.40;12.05;;;;;;;20.05;73.23;101224.81;5072359;28;20039;-81
2022/08/19 00:30:06;;;;;;;14.07;12.32;;;;;;;19.91;73.85;101226.88;5072840;28;20359;-81
2022/08/19 00:32:34;;;;;;;13.02;11.43;;;;;;;20.02;73.39;101241.84;5072617;28;20028;-81
2022/08/19 00:34:59;;;;;;;15.18;12.25;;;;;;;20.02;73.46;101214.13;5075831;28;20037;-80
2022/08/19 00:37:25;;;;;;;15.35;12.02;;;;;;;20.16;72.96;101235.28;5076214;28;20054;-81
2022/08/19 00:39:51;;;;;;;14.48;12.52;;;;;;;20.14;73.29;101247.88;5075929;28;20040;-81
2022/08/19 00:42:18;;;;;;;13.57;11.80;;;;;;;20.04;73.15;101244.47;5075784;28;20031;-81
2022/08/19 00:44:44;;;;;;;14.23;11.90;;;;;;;20.05;73.03;101248.06;5076395;28;20040;-81
2022/08/19 00:47:11;;;;;;;13.75;12.32;;;;;;;19.93;73.62;101225.94;5076199;28;20063;-81
2022/08/19 00:49:43;;;;;;;14.10;12.60;;;;;;;19.90;73.56;101225.13;5075877;28;20539;-81
2022/08/19 00:52:15;;;;;;;16.83;12.88;;;;;;;19.92;74.04;101231.38;5076010;28;20036;-81
2022/08/19 00:54:41;;;;;;;16.52;13.35;;;;;;;19.96;74.00;101233.06;5075683;28;20416;-81
2022/08/19 00:57:12;;;;;;;17.70;13.00;;;;;;;20.00;73.79;101242.81;5075876;28;20028;-81
2022/08/19 00:59:39;;;;;;;14.80;12.65;;;;;;;20.05;73.54;101240.91;5075907;28;20028;-81
2022/08/19 01:02:06;;;;;;;15.13;13.27;;;;;;;19.97;73.97;101233.03;5075780;28;20028;-82
2022/08/19 01:04:31;;;;;;;15.82;12.57;;;;;;;19.99;73.59;101241.91;5075761;28;20056;-82
2022/08/19 01:06:58;;;;;;;15.73;12.52;;;;;;;19.90;73.74;101225.13;5075411;28;20268;-82
2022/08/19 01:09:24;;;;;;;16.58;13.57;;;;;;;19.87;74.25;101242.19;5075370;28;20091;-82
2022/08/19 01:11:49;;;;;;;17.25;12.95;;;;;;;19.72;74.88;101248.75;5075618;28;20060;-82
2022/08/19 01:14:16;;;;;;;16.15;12.70;;;;;;;19.53;74.98;101239.28;5075637;28;20036;-82
2022/08/19 01:16:43;;;;;;;14.73;12.70;;;;;;;19.48;75.14;101249.19;5075421;28;20040;-82
2022/08/19 01:19:35;;;;;;;16.35;13.85;;;;;;;19.50;75.07;101244.69;5075275;28;20037;-82
2022/08/19 01:22:11;;;;;;;16.25;14.38;;;;;;;19.47;75.10;101234.03;5075679;28;20029;-81
2022/08/19 01:24:36;;;;;;;16.50;14.55;;;;;;;19.42;75.58;101222.53;5075475;28;20099;-82
2022/08/19 01:27:05;;;;;;;17.92;15.48;;;;;;;19.57;75.87;101240.09;5075143;28;20115;-81
2022/08/19 01:29:30;;;;;;;23.10;15.80;;;;;;;19.52;75.96;101233.00;5075322;28;20031;-81
2022/08/19 01:31:55;;;;;;;18.45;16.08;;;;;;;19.67;75.63;101241.72;5075444;28;20036;-82
2022/08/19 01:34:21;;;;;;;21.77;15.55;;;;;;;19.67;75.68;101239.91;5074874;28;20039;-81
2022/08/19 01:36:48;;;;;;;17.27;15.43;;;;;;;19.63;75.44;101242.69;5074818;28;20093;-81
2022/08/19 01:39:19;;;;;;;21.15;15.27;;;;;;;19.62;75.49;101235.56;5075107;28;20374;-81
2022/08/19 01:41:44;;;;;;;17.65;15.23;;;;;;;19.68;74.98;101241.69;5074948;28;20081;-81
2022/08/19 01:44:11;;;;;;;17.88;14.48;;;;;;;19.65;74.72;101239.03;5074280;28;20028;-81
2022/08/19 01:46:36;;;;;;;17.38;14.93;;;;;;;19.62;74.81;101223.03;5074163;28;20032;-81
2022/08/19 01:49:04;;;;;;;20.98;15.18;;;;;;;19.49;75.00;101226.84;5074673;28;20481;-81
2022/08/19 01:51:30;;;;;;;20.15;15.93;;;;;;;19.56;74.89;101241.00;5074822;28;20097;-81
2022/08/19 01:53:56;;;;;;;20.30;16.60;;;;;;;19.47;75.14;101234.91;5074806;28;20036;-82
2022/08/19 01:56:22;;;;;;;23.90;17.30;;;;;;;19.46;75.23;101240.31;5074681;28;20064;-82
2022/08/19 01:58:53;;;;;;;21.88;17.08;;;;;;;19.51;75.49;101235.75;5056626;28;20409;-82
2022/08/19 02:01:19;;;;;;;22.65;17.10;;;;;;;19.48;75.74;101241.16;5074423;28;20082;-81
2022/08/19 02:03:45;;;;;;;21.42;16.67;;;;;;;19.33;75.27;101237.00;5074221;28;20439;-82
2022/08/19 02:06:11;;;;;;;19.42;16.17;;;;;;;19.42;75.02;101246.66;5074272;28;20079;-82
2022/08/19 02:08:39;;;;;;;19.67;15.48;;;;;;;19.37;75.10;101254.78;5074252;28;20119;-82
2022/08/19 02:11:05;;;;;;;19.83;15.63;;;;;;;19.39;74.07;101244.91;5074323;28;20048;-81
2022/08/19 02:13:31;;;;;;;18.13;14.38;;;;;;;19.45;74.43;101266.25;5056410;28;20036;-81
2022/08/19 02:15:57;;;;;;;19.30;14.43;;;;;;;19.36;74.17;101258.38;5074226;28;20032;-81
2022/08/19 02:18:23;;;;;;;17.90;14.00;;;;;;;19.15;74.05;101251.63;5074549;28;20444;-81
2022/08/19 02:20:48;;;;;;;16.08;13.95;;;;;;;19.11;74.95;101251.69;5074194;28;20397;-82
2022/08/19 02:23:16;;;;;;;19.75;14.88;;;;;;;19.09;74.63;101257.06;5074216;28;20488;-81
2022/08/19 02:25:44;;;;;;;17.08;14.15;;;;;;;19.10;74.56;101257.94;5073892;28;20032;-82
2022/08/19 02:28:11;;;;;;;17.33;14.13;;;;;;;18.94;74.54;101249.31;5073776;28;20435;-81
2022/08/19 02:30:37;;;;;;;18.42;13.75;;;;;;;18.93;74.81;101255.59;5073822;28;20029;-81
2022/08/19 02:33:04;;;;;;;21.15;14.82;;;;;;;18.77;75.43;101266.53;5073946;28;20025;-81
2022/08/19 02:35:30;;;;;;;20.58;16.45;;;;;;;18.72;76.17;101278.25;5073502;28;20040;-81
2022/08/19 02:40:40;;;;;;;19.05;16.13;;;;;;;18.50;76.89;101270.53;5074059;28;20055;-81
2022/08/19 02:43:08;;;;;;;20.48;17.17;;;;;;;18.49;76.80;101268.72;5073543;28;20123;-81
2022/08/19 02:45:35;;;;;;;22.52;16.38;;;;;;;18.68;76.79;101279.16;5073829;28;20119;-82
2022/08/19 02:48:01;;;;;;;25.63;16.45;;;;;;;18.66;75.75;101275.63;5073556;28;20032;-81
2022/08/19 02:50:26;;;;;;;18.85;14.57;;;;;;;18.73;75.36;101280.88;5073759;28;20029;-81
2022/08/19 02:52:52;;;;;;;21.13;16.13;;;;;;;18.65;75.84;101284.56;5073756;28;20389;-82
2022/08/19 02:55:17;;;;;;;22.25;16.55;;;;;;;18.56;76.63;101285.59;5073454;28;20476;-81
2022/08/19 02:57:42;;;;;;;24.00;18.02;;;;;;;18.41;77.71;101280.44;5073408;28;20035;-82
2022/08/19 03:00:12;;;;;;;25.63;18.30;;;;;;;18.38;78.17;101284.06;5073554;28;20111;-81
2022/08/19 03:02:37;;;;;;;25.27;17.95;;;;;;;18.36;77.98;101276.97;5073617;28;20040;-82
2022/08/19 03:05:04;;;;;;;20.70;18.38;;;;;;;18.32;78.38;101251.16;5073182;28;20480;-81
2022/08/19 03:07:30;;;;;;;26.17;18.65;;;;;;;18.50;78.20;101277.66;5073500;28;20041;-81
2022/08/19 03:09:55;;;;;;;23.02;17.08;;;;;;;18.49;78.58;101259.81;5073475;28;20063;-81
2022/08/19 03:12:21;;;;;;;22.17;18.25;;;;;;;18.60;77.98;101267.69;5073413;28;20461;-81
2022/08/19 03:14:46;;;;;;;24.38;19.38;;;;;;;18.62;78.23;101276.56;5073549;28;20036;-81
2022/08/19 03:17:12;;;;;;;21.00;18.20;;;;;;;18.67;77.98;101270.25;5073245;28;20078;-81
2022/08/19 03:19:38;;;;;;;24.25;18.73;;;;;;;18.56;78.09;101263.28;5073368;28;20033;-81
2022/08/19 03:22:04;;;;;;;22.25;19.23;;;;;;;18.64;78.39;101280.13;5073311;28;20389;-81
2022/08/19 03:24:30;;;;;;;24.52;18.38;;;;;;;18.70;77.67;101283.59;5073309;28;20032;-81
2022/08/19 03:26:59;;;;;;;26.60;19.60;;;;;;;18.73;77.39;101275.53;5073081;28;20060;-81
2022/08/19 03:29:27;;;;;;;24.73;19.35;;;;;;;18.72;78.05;101276.44;5073262;28;20029;-81
2022/08/19 03:31:53;;;;;;;22.27;18.90;;;;;;;18.64;77.73;101264.06;5073025;28;20075;-82
2022/08/19 03:34:30;;;;;;;26.50;19.83;;;;;;;18.76;77.91;101274.63;5073249;28;20036;-81
2022/08/19 03:36:58;;;;;;;22.35;18.27;;;;;;;18.64;77.70;101269.41;5072995;28;20032;-81
2022/08/19 03:39:25;;;;;;;24.90;19.17;;;;;;;18.62;77.82;101268.53;5054903;28;20393;-81
2022/08/19 03:41:51;;;;;;;26.85;19.63;;;;;;;18.76;77.57;101272.81;5073265;28;20080;-81
2022/08/19 03:44:21;;;;;;;25.60;20.13;;;;;;;18.77;77.39;101271.91;5072839;28;20397;-81
2022/08/19 03:46:55;;;;;;;26.38;20.25;;;;;;;18.89;77.37;101268.16;5073158;28;20068;-81
2022/08/19 03:49:23;;;;;;;23.00;18.15;;;;;;;18.84;75.47;101247.69;5072814;28;20496;-81
2022/08/19 03:51:50;;;;;;;24.40;18.63;;;;;;;18.95;75.64;101264.47;5072869;28;20036;-81
2022/08/19 03:54:18;;;;;;;22.50;17.98;;;;;;;18.73;74.93;101263.94;5072810;28;20032;-81
2022/08/19 03:56:46;;;;;;;25.45;18.27;;;;;;;18.68;75.64;101264.00;5072897;28;20064;-81
2022/08/19 03:59:16;;;;;;;24.35;18.13;;;;;;;18.49;75.80;101246.44;5072760;28;20464;-81
2022/08/19 04:01:42;;;;;;;24.05;18.27;;;;;;;18.49;76.32;101260.69;5072816;28;20089;-81
2022/08/19 04:04:07;;;;;;;22.25;16.45;;;;;;;18.52;75.75;101273.16;5072978;28;20085;-81
2022/08/19 04:06:35;;;;;;;24.83;17.30;;;;;;;18.47;75.90;101280.38;5072339;28;20032;-81
2022/08/19 04:09:04;;;;;;;24.90;18.88;;;;;;;18.45;76.08;101277.72;5074872;28;20033;-80
2022/08/19 04:11:42;;;;;;;25.73;17.95;;;;;;;18.41;76.05;101267.06;5076878;28;20493;-80
2022/08/19 04:14:11;;;;;;;24.88;19.17;;;;;;;18.30;76.47;101256.53;5076572;28;20028;-81
2022/08/19 04:16:36;;;;;;;25.38;19.15;;;;;;;18.44;76.13;101261.69;5076406;28;20056;-81
2022/08/19 04:19:03;;;;;;;24.95;17.65;;;;;;;18.35;74.89;101254.69;5058438;28;20105;-80
2022/08/19 04:21:29;;;;;;;24.92;19.13;;;;;;;18.32;75.30;101277.91;5076401;28;20512;-81
2022/08/19 04:23:55;;;;;;;21.52;17.27;;;;;;;18.23;75.26;101271.78;5076574;28;20040;-81
2022/08/19 04:26:27;;;;;;;27.67;18.33;;;;;;;18.22;75.89;101267.34;5076292;28;20416;-81
2022/08/19 04:28:54;;;;;;;28.00;18.98;;;;;;;18.26;76.54;101265.53;5058442;28;20111;-81
2022/08/19 04:31:22;;;;;;;23.23;17.88;;;;;;;18.30;76.44;101256.53;5076332;28;20119;-81
2022/08/19 04:33:47;;;;;;;24.98;17.88;;;;;;;18.29;75.43;101248.56;5076046;28;20430;-81
2022/08/19 04:36:22;;;;;;;27.20;20.17;;;;;;;18.37;75.80;101262.66;5075432;28;20477;-81
2022/08/19 04:38:49;;;;;;;25.48;18.77;;;;;;;18.32;75.52;101261.84;5075495;28;20028;-81
2022/08/19 04:43:59;;;;;;;23.20;17.80;;;;;;;18.34;75.24;101254.72;5075594;28;20043;-80
2022/08/19 04:46:25;;;;;;;23.17;18.60;;;;;;;18.30;74.74;101258.34;5075868;28;20040;-81
2022/08/19 04:48:53;;;;;;;25.10;19.70;;;;;;;18.14;75.32;101242.50;5075542;28;20103;-81
2022/08/19 04:51:20;;;;;;;21.83;18.08;;;;;;;18.20;75.20;101258.47;5075490;28;20049;-81
2022/08/19 04:53:45;;;;;;;25.58;19.38;;;;;;;18.14;75.33;101257.66;5075151;28;20040;-81
2022/08/19 04:56:14;;;;;;;26.40;18.75;;;;;;;18.07;75.80;101264.88;5075371;28;20037;-81
2022/08/19 04:58:42;;;;;;;21.60;17.10;;;;;;;18.08;75.21;101274.69;5075243;28;20055;-81
2022/08/19 05:01:11;;;;;;;22.60;16.73;;;;;;;17.96;75.59;101277.50;5075315;28;20029;-81
2022/08/19 05:03:37;;;;;;;23.55;17.02;;;;;;;18.01;75.47;101289.03;5075360;28;20051;-81
2022/08/19 05:06:10;;;;;;;22.40;16.73;;;;;;;17.97;75.12;101271.25;5074852;28;20033;-80
2022/08/19 05:08:36;;;;;;;28.20;20.25;;;;;;;18.12;75.55;101296.94;5075270;28;20054;-81
2022/08/19 05:11:09;;;;;;;38.03;28.70;;;;;;;18.15;75.19;101288.84;5074560;28;20056;-81
2022/08/19 05:13:34;;;;;;;;;;;;;;;18.34;74.16;101297.53;5075880;28;20024;-80
2022/08/19 05:15:59;;;;;;;22.92;16.75;;;;;;;18.22;74.48;101290.53;5074915;28;20439;-79
2022/08/19 05:23:57;;;;;;;19.35;16.83;;;;;;;18.22;75.42;101290.53;5075067;28;20165;-81
2022/08/19 05:26:25;;;;;;;22.50;17.10;;;;;;;18.15;75.65;101294.19;5074837;28;20040;-80
2022/08/19 05:28:54;;;;;;;21.38;18.27;;;;;;;18.20;76.10;101314.66;5074599;28;20151;-81
2022/08/19 05:31:20;;;;;;;26.73;20.85;;;;;;;18.12;76.92;101302.28;5074684;28;20043;-81
2022/08/19 05:33:46;;;;;;;31.58;23.25;;;;;;;18.16;78.07;101331.66;5074632;28;20470;-80
2022/08/19 05:36:12;;;;;;;39.42;27.27;;;;;;;18.10;79.33;101320.13;5055998;28;20035;-80
2022/08/19 05:38:37;;;;;;;38.47;28.25;;;;;;;18.14;79.78;101320.06;5074697;28;20063;-81
2022/08/19 05:41:10;;;;;;;40.08;29.05;;;;;;;18.20;80.06;101332.47;5074443;28;20445;-80
2022/08/19 05:43:36;;;;;;;51.10;32.08;;;;;;;18.22;80.43;101323.53;5074373;28;20480;-80
2022/08/19 05:46:04;;;;;;;47.55;33.28;;;;;;;18.35;80.07;101326.03;5074332;28;20123;-80
2022/08/19 05:48:30;;;;;;;48.75;33.25;;;;;;;18.26;80.71;101325.25;5074340;28;20089;-80
2022/08/19 05:50:55;;;;;;;52.22;36.08;;;;;;;18.32;81.67;101331.44;5073969;28;20131;-80
2022/08/19 05:53:20;;;;;;;52.72;35.63;;;;;;;18.35;81.82;101323.38;5073960;28;20046;-80
2022/08/19 05:55:46;;;;;;;50.67;35.90;;;;;;;18.41;81.42;101323.25;5074217;28;20033;-81
2022/08/19 05:58:11;;;;;;;52.47;35.58;;;;;;;18.41;81.43;101309.88;5074083;28;20470;-81
2022/08/19 06:00:37;;;;;;;58.05;37.20;;;;;;;18.60;81.40;101326.59;5074073;28;20444;-80
2022/08/19 06:03:03;;;;;;;53.70;35.92;;;;;;;18.71;81.33;101321.97;5073984;28;20032;-80
2022/08/19 06:05:29;;;;;;;51.03;35.33;;;;;;;18.71;80.60;101301.47;5073859;28;20042;-79
2022/08/19 06:07:55;;;;;;;56.65;36.03;;;;;;;18.82;80.56;101308.44;5073798;28;20035;-80
2022/08/19 06:10:21;;;;;;;48.88;32.95;;;;;;;18.84;80.16;101302.13;5073637;28;20056;-79
2022/08/19 06:12:47;;;;;;;55.50;36.92;;;;;;;19.02;80.33;101311.69;5073944;28;20462;-81
2022/08/19 06:15:13;;;;;;;52.70;34.75;;;;;;;19.11;80.34;101306.16;5073555;28;20032;-80
2022/08/19 06:17:39;;;;;;;51.85;35.33;;;;;;;19.19;79.39;101295.31;5074032;28;20036;-81
2022/08/19 06:20:12;;;;;;;55.90;37.42;;;;;;;19.31;79.62;101300.44;5073312;28;20028;-80
2022/08/19 06:22:40;;;;;;;56.65;38.13;;;;;;;19.33;79.18;101313.81;5074141;28;20321;-81
2022/08/19 06:25:06;;;;;;;56.13;38.17;;;;;;;19.39;78.90;101308.34;5073536;28;20044;-80
2022/08/19 06:27:32;;;;;;;55.88;38.00;;;;;;;19.42;78.79;101314.53;5073607;28;20028;-80
2022/08/19 06:29:58;;;;;;;58.65;37.63;;;;;;;19.46;79.51;101308.19;5073397;28;20052;-80
2022/08/19 06:32:23;;;;;;;54.45;36.30;;;;;;;19.58;78.96;101306.22;5072780;28;20470;-80
2022/08/19 06:34:49;;;;;;;53.40;36.35;;;;;;;19.67;78.17;101306.94;5073239;28;20032;-81
2022/08/19 06:37:14;;;;;;;54.47;35.55;;;;;;;19.84;78.18;101309.28;5072836;28;20494;-80
2022/08/19 06:39:42;;;;;;;59.67;36.58;;;;;;;19.92;77.34;101311.84;5073380;28;20029;-81
2022/08/19 06:42:11;;;;;;;52.53;34.28;;;;;;;20.00;76.91;101302.72;5073382;28;20059;-81
2022/08/19 06:44:39;;;;;;;56.90;34.88;;;;;;;19.95;76.75;101292.97;5074573;28;20119;-81
2022/08/19 06:47:06;;;;;;;50.60;32.72;;;;;;;20.22;76.75;101304.94;5073232;28;20032;-81
2022/08/19 06:49:32;;;;;;;51.30;33.20;;;;;;;20.32;75.77;101314.53;5073274;28;20415;-80
2022/08/19 06:51:58;;;;;;;47.05;31.23;;;;;;;20.46;75.70;101316.91;5073422;28;20029;-81
2022/08/19 06:54:24;;;;;;;50.35;31.83;;;;;;;20.50;75.70;101307.91;5073218;28;20024;-81
2022/08/19 06:56:50;;;;;;;45.97;30.17;;;;;;;20.50;74.97;101311.47;5073131;28;20081;-81
2022/08/19 06:59:19;;;;;;;47.35;30.40;;;;;;;20.55;74.82;101315.84;5073218;28;20033;-81
2022/08/19 07:01:48;;;;;;;47.38;30.25;;;;;;;20.58;74.39;101310.41;5073025;28;20036;-81
2022/08/19 07:04:16;;;;;;;47.05;28.98;;;;;;;20.78;74.02;101308.16;5073199;28;20036;-81
2022/08/19 07:06:43;;;;;;;43.35;29.20;;;;;;;20.93;73.57;101302.38;5072751;28;20045;-81
2022/08/19 07:09:10;;;;;;;43.20;29.58;;;;;;;20.98;73.41;101311.25;5072526;28;20110;-81
2022/08/19 07:11:35;;;;;;;46.92;29.00;;;;;;;21.01;72.63;101316.50;5072906;28;20117;-81
2022/08/19 07:14:01;;;;;;;43.55;29.38;;;;;;;21.06;73.46;101302.06;5072897;28;20173;-80
2022/08/19 07:16:27;;;;;;;41.08;27.85;;;;;;;21.26;72.87;101321.28;5072643;28;20044;-81
2022/08/19 07:18:53;;;;;;;46.45;29.25;;;;;;;21.46;72.57;101320.78;5072768;28;20028;-81
2022/08/19 07:21:23;;;;;;;39.78;27.55;;;;;;;21.47;71.46;101309.09;5072662;28;20036;-81
2022/08/19 07:23:51;;;;;;;43.85;27.70;;;;;;;21.48;71.35;101321.63;5072840;28;20040;-81
2022/08/19 07:26:27;;;;;;;45.92;29.08;;;;;;;21.44;72.05;101338.75;5072549;28;20374;-81
2022/08/19 07:28:54;;;;;;;45.25;28.80;;;;;;;21.54;72.04;101328.63;5072610;28;20024;-81
2022/08/19 07:31:22;;;;;;;41.08;28.23;;;;;;;21.52;71.84;101338.56;5072866;28;20086;-81
2022/08/19 07:33:50;;;;;;;43.22;28.30;;;;;;;21.53;71.82;101329.56;5072534;28;20103;-81
2022/08/19 07:36:20;;;;;;;44.00;29.20;;;;;;;21.52;71.78;101308.97;5072469;28;20064;-81
2022/08/19 07:38:47;;;;;;;47.60;31.73;;;;;;;21.65;71.60;101318.47;5072253;28;20033;-81
2022/08/19 07:41:16;;;;;;;45.72;31.63;;;;;;;21.73;71.65;101333.47;5072468;28;20032;-81
2022/08/19 07:43:43;;;;;;;49.10;31.40;;;;;;;21.62;71.34;101303.28;5056399;28;20365;-81
2022/08/19 07:46:11;;;;;;;48.63;32.05;;;;;;;21.65;71.10;101315.78;5076704;28;20070;-80
2022/08/19 07:48:36;;;;;;;50.80;32.53;;;;;;;21.84;72.13;101341.25;5076856;28;20480;-81
2022/08/19 07:51:04;;;;;;;45.60;32.35;;;;;;;22.06;70.52;101352.28;5076400;28;20059;-80
2022/08/19 07:53:32;;;;;;;42.85;31.88;;;;;;;22.07;70.55;101359.44;5076822;28;20064;-80
2022/08/19 07:56:03;;;;;;;49.00;31.67;;;;;;;22.08;70.18;101365.69;5076231;28;20025;-81
2022/08/19 07:58:33;;;;;;;48.28;32.25;;;;;;;21.95;70.08;101349.91;5076673;28;20029;-80
2022/08/19 08:00:59;;;;;;;41.20;30.80;;;;;;;22.01;70.63;101364.97;5076218;28;20032;-81
2022/08/19 08:09:10;;;;;;;45.45;31.30;;;;;;;21.98;69.97;101359.69;5076282;28;20028;-81
2022/08/19 08:09:12;;;;;;;53.85;33.45;;;;;;;22.07;71.03;101363.94;5076308;28;20082;-79
2022/08/19 08:11:39;;;;;;;48.40;33.17;;;;;;;22.09;70.21;101351.31;5076340;28;20063;-80
2022/08/19 08:14:05;;;;;;;50.60;34.30;;;;;;;22.08;70.19;101355.81;5076147;28;20033;-80
2022/08/19 08:16:34;;;;;;;47.08;32.70;;;;;;;22.16;70.14;101375.34;5075735;28;20025;-80
2022/08/19 08:19:00;;;;;;;47.67;32.35;;;;;;;22.15;69.71;101367.31;5076000;28;20439;-80
2022/08/19 08:21:25;;;;;;;51.05;34.25;;;;;;;22.10;69.51;101372.81;5058092;28;20124;-81
2022/08/19 08:23:52;;;;;;;49.28;33.45;;;;;;;22.05;70.22;101372.03;5057926;28;20397;-81
2022/08/19 08:26:18;;;;;;;51.55;33.55;;;;;;;22.07;69.74;101372.00;5075723;28;20375;-81
2022/08/19 08:28:43;;;;;;;46.72;32.63;;;;;;;22.17;69.52;101376.22;5075926;28;20093;-81
2022/08/19 08:31:09;;;;;;;48.75;33.53;;;;;;;22.20;69.50;101379.72;5076095;28;20063;-80
2022/08/19 08:33:34;;;;;;;51.00;34.20;;;;;;;22.24;69.32;101388.59;5075725;28;20032;-80
2022/08/19 08:36:00;;;;;;;44.25;32.10;;;;;;;22.21;68.70;101376.09;5075731;28;20036;-80
2022/08/19 08:38:27;;;;;;;46.47;32.22;;;;;;;22.22;69.73;101377.84;5075720;28;20374;-80
2022/08/19 08:41:06;;;;;;;49.88;32.85;;;;;;;22.58;68.46;101390.28;5058021;28;20506;-81
2022/08/19 08:43:43;;;;;;;45.65;32.05;;;;;;;22.67;68.31;101381.91;5075606;28;20025;-80
2022/08/19 08:46:16;;;;;;;50.13;31.70;;;;;;;23.01;67.67;101397.06;5075664;28;20039;-81
2022/08/19 08:48:57;;;;;;;45.22;31.08;;;;;;;22.97;66.87;101405.25;5075695;28;20178;-81
2022/08/19 08:51:35;;;;;;;43.30;29.38;;;;;;;22.89;66.34;101393.78;5076203;28;20036;-79
2022/08/19 08:54:04;;;;;;;38.42;28.25;;;;;;;22.69;66.53;101389.00;5075173;28;20024;-80
2022/08/19 08:56:30;;;;;;;37.65;27.23;;;;;;;22.99;66.65;101399.78;5075214;28;20043;-79
2022/08/19 08:59:20;;;;;;;32.72;24.75;;;;;;;23.20;66.03;101387.44;5075611;28;20028;-80
2022/08/19 09:01:46;;;;;;;37.53;26.77;;;;;;;23.33;64.98;101387.91;5075584;28;20032;-80
2022/08/19 09:04:13;;;;;;;33.13;24.75;;;;;;;23.23;65.38;101388.22;5075406;28;20139;-80
2022/08/19 09:07:37;;;;;;;37.45;24.90;;;;;;;23.27;65.68;101388.13;5074823;28;20040;-79
2022/08/19 09:10:34;;;;;;;32.08;23.92;;;;;;;23.42;65.11;101385.78;4973844;28;20504;-80
2022/08/19 09:13:24;;;;;;;37.10;25.08;;;;;;;23.46;64.65;101383.84;5035169;28;20115;-79
2022/08/19 09:16:05;;;;;;;32.97;23.17;;;;;;;23.56;63.65;101385.31;5035214;28;20032;-80
2022/08/19 09:18:40;;;;;;;35.75;24.73;;;;;;;23.56;64.13;101389.84;5035331;28;20029;-79
2022/08/19 09:21:08;;;;;;;37.35;25.95;;;;;;;23.49;64.56;101381.06;5035233;28;20107;-80
2022/08/19 09:23:34;;;;;;;36.40;25.33;;;;;;;23.53;63.40;101395.34;5034849;28;20117;-80
2022/08/19 09:25:59;;;;;;;38.35;26.23;;;;;;;23.32;63.66;101394.25;5035033;28;20072;-79
2022/08/19 09:28:25;;;;;;;37.63;26.40;;;;;;;23.07;64.89;101396.84;5035120;28;20032;-81
2022/08/19 09:30:51;;;;;;;33.22;24.23;;;;;;;23.04;65.22;101402.34;5034753;28;20387;-80
2022/08/19 09:33:17;;;;;;;37.63;25.65;;;;;;;22.97;65.63;101397.16;5033520;28;20021;-81
2022/08/19 09:35:42;;;;;;;34.28;25.92;;;;;;;23.00;65.85;101401.59;5034988;28;20034;-80
2022/08/19 09:38:08;;;;;;;40.00;25.90;;;;;;;22.87;65.55;101390.28;5034778;28;20471;-80
2022/08/19 09:40:33;;;;;;;35.70;25.90;;;;;;;22.86;65.96;101404.66;5034938;28;20116;-80
2022/08/19 09:43:02;;;;;;;38.03;26.20;;;;;;;22.82;65.87;101399.41;5033586;28;20064;-78
2022/08/19 09:45:28;;;;;;;37.70;26.45;;;;;;;22.68;66.32;101400.72;5035005;28;20352;-80
2022/08/19 09:47:54;;;;;;;34.78;25.60;;;;;;;22.61;67.02;101403.66;5034641;28;20053;-80
2022/08/19 09:50:20;;;;;;;40.53;27.52;;;;;;;22.43;67.18;101394.31;5034584;28;20067;-80
2022/08/19 09:52:45;;;;;;;39.08;26.60;;;;;;;22.50;67.57;101399.47;5034318;28;20065;-80
2022/08/19 09:55:12;;;;;;;41.70;27.08;;;;;;;22.69;66.93;101407.00;5034665;28;20057;-80
2022/08/19 09:57:38;;;;;;;38.58;27.40;;;;;;;22.87;66.20;101408.22;5033250;28;20037;-80
2022/08/19 10:00:06;;;;;;;42.53;27.45;;;;;;;23.00;65.50;101415.06;5034355;28;20428;-80
2022/08/19 10:02:32;;;;;;;42.25;27.65;;;;;;;22.97;65.23;101405.25;5034256;28;20025;-81
2022/08/19 10:07:41;;;;;;;40.70;27.92;;;;;;;22.96;64.51;101400.78;5034170;28;20054;-80
2022/08/19 10:10:08;;;;;;;35.95;26.08;;;;;;;22.91;65.05;101401.84;5054592;28;20053;-81
2022/08/19 10:12:34;;;;;;;36.63;26.98;;;;;;;22.93;65.67;101414.34;5074231;28;20036;-80
2022/08/19 10:15:00;;;;;;;41.10;28.17;;;;;;;22.81;65.92;101408.44;5074016;28;20021;-80
2022/08/19 10:17:26;;;;;;;38.85;26.98;;;;;;;22.89;65.45;101409.97;5074116;28;20067;-81
2022/08/19 10:19:52;;;;;;;36.90;26.77;;;;;;;22.92;66.53;101399.13;5073665;28;20060;-80
2022/08/19 10:22:18;;;;;;;41.00;27.75;;;;;;;22.99;65.66;101402.50;5074080;28;20064;-81
2022/08/19 10:24:43;;;;;;;41.22;27.38;;;;;;;23.11;65.50;101409.31;5073785;28;20552;-81
2022/08/19 10:27:09;;;;;;;41.80;27.63;;;;;;;23.12;65.40;101394.88;5073519;28;20044;-80
2022/08/19 10:29:35;;;;;;;40.53;28.50;;;;;;;23.28;65.27;101414.16;5073680;28;20039;-81
2022/08/19 10:32:02;;;;;;;44.35;29.17;;;;;;;23.28;64.62;101398.84;5073382;28;20025;-81
2022/08/19 10:34:29;;;;;;;41.33;29.33;;;;;;;23.58;63.64;101417.63;5073820;28;20429;-81
2022/08/19 10:36:56;;;;;;;43.97;28.73;;;;;;;23.69;63.92;101407.41;5073492;28;20086;-81
2022/08/19 10:39:21;;;;;;;40.20;27.08;;;;;;;23.82;63.58;101414.13;5073613;28;20032;-81
2022/08/19 10:41:47;;;;;;;39.95;27.42;;;;;;;23.68;63.76;101408.31;5073495;28;20039;-81
2022/08/19 10:44:13;;;;;;;40.65;27.58;;;;;;;23.49;63.95;101400.81;5073528;28;20081;-80
2022/08/19 10:46:42;;;;;;;36.33;26.75;;;;;;;23.57;64.33;101397.88;5073533;28;20466;-80
2022/08/19 10:49:10;;;;;;;38.33;26.05;;;;;;;23.64;62.98;101403.91;5073079;28;20029;-80
2022/08/19 10:54:22;;;;;;;38.03;26.45;;;;;;;23.83;62.85;101405.09;5073450;28;20443;-80
2022/08/19 10:56:55;;;;;;;43.22;27.00;;;;;;;23.83;62.23;101393.41;5073256;28;20041;-81
2022/08/19 10:59:29;;;;;;;35.85;25.65;;;;;;;23.99;62.26;101394.63;5073258;28;20031;-80
2022/08/19 11:02:03;;;;;;;38.58;25.90;;;;;;;24.02;61.81;101399.91;5073311;28;20028;-81
2022/08/19 11:04:29;;;;;;;38.10;25.33;;;;;;;23.90;61.56;101392.28;5073287;28;20028;-80
2022/08/19 11:06:55;;;;;;;36.10;25.52;;;;;;;23.83;61.79;101394.28;5072916;28;20039;-81
2022/08/19 11:09:29;;;;;;;33.25;23.95;;;;;;;23.88;61.30;101384.22;5072766;28;20413;-81
2022/08/19 11:11:56;;;;;;;34.25;24.02;;;;;;;23.97;61.37;101394.66;5073217;28;20021;-81
2022/08/19 11:14:23;;;;;;;35.10;24.55;;;;;;;24.04;61.12;101392.63;5073041;28;20040;-80
2022/08/19 11:16:49;;;;;;;39.00;26.10;;;;;;;24.06;61.02;101388.06;5054968;28;20032;-80
2022/08/19 11:19:18;;;;;;;36.85;26.05;;;;;;;23.95;60.95;101361.47;5073018;28;20516;-81
2022/08/19 11:21:46;;;;;;;33.70;25.17;;;;;;;24.19;61.24;101400.16;5072918;28;20470;-81
2022/08/19 11:24:15;;;;;;;36.58;24.77;;;;;;;24.19;61.00;101397.47;5073016;28;20031;-81
2022/08/19 11:26:42;;;;;;;33.70;24.38;;;;;;;24.27;60.45;101396.31;5073113;28;20024;-80
2022/08/19 11:29:13;;;;;;;32.08;24.20;;;;;;;24.17;60.41;101398.47;5072833;28;20043;-80
2022/08/19 11:31:42;;;;;;;38.28;24.08;;;;;;;24.36;60.14;101395.94;5072825;28;20028;-80